createdAt,value
2023-04-21T00:01:49.232Z,25.56
2023-04-21T00:04:18.100Z,25.51
2023-04-21T00:06:48.193Z,25.26
2023-04-21T00:09:17.165Z,25.61
2023-04-21T00:11:45.926Z,25.47
2023-04-21T00:14:14.248Z,25.49
2023-04-21T00:16:42.892Z,25.46
2023-04-21T00:19:13.866Z,25.47
2023-04-21T00:21:42.646Z,25.54
2023-04-21T00:24:12.231Z,25.33
2023-04-21T00:26:40.744Z,25.49
2023-04-21T00:29:09.031Z,25.66
2023-04-21T00:31:37.618Z,25.66
2023-04-21T00:34:05.978Z,25.53
2023-04-21T00:36:34.634Z,25.58
2023-04-21T00:39:04.006Z,25.57
2023-04-21T00:41:35.432Z,25.35
2023-04-21T00:44:05.187Z,25.60
2023-04-21T00:46:34.399Z,25.53
2023-04-21T00:49:05.346Z,25.44
2023-04-21T00:51:35.496Z,25.73
2023-04-21T00:54:06.071Z,25.80
2023-04-21T00:56:37.201Z,25.19
2023-04-21T00:59:05.500Z,25.68
2023-04-21T01:01:34.467Z,25.85
2023-04-21T01:04:03.081Z,25.73
2023-04-21T01:06:33.181Z,25.39
2023-04-21T01:09:01.898Z,25.43
2023-04-21T01:11:30.440Z,25.43
2023-04-21T01:14:00.026Z,24.99
2023-04-21T01:16:29.711Z,25.36
2023-04-21T01:18:59.200Z,25.45
2023-04-21T01:21:29.085Z,25.26
2023-04-21T01:23:58.797Z,25.13
2023-04-21T01:26:27.354Z,25.53
2023-04-21T01:28:58.407Z,25.08
2023-04-21T01:31:27.467Z,23.93
2023-04-21T01:33:55.865Z,25.24
2023-04-21T01:36:24.513Z,25.41
2023-04-21T01:38:52.798Z,25.38
2023-04-21T01:41:22.714Z,25.26
2023-04-21T01:43:50.885Z,25.24
2023-04-21T01:46:21.049Z,25.01
2023-04-21T01:48:49.356Z,25.15
2023-04-21T01:51:17.851Z,25.44
2023-04-21T01:53:46.082Z,25.52
2023-04-21T01:56:15.445Z,25.34
2023-04-21T01:58:45.002Z,25.26
2023-04-21T02:01:13.464Z,25.42
2023-04-21T02:03:42.039Z,25.37
2023-04-21T02:06:10.717Z,25.31
2023-04-21T02:08:38.948Z,25.32
2023-04-21T02:11:07.380Z,25.33
2023-04-21T02:13:36.005Z,25.40
2023-04-21T02:16:13.484Z,25.18
2023-04-21T02:18:42.553Z,25.24
2023-04-21T02:21:11.506Z,25.21
2023-04-21T02:23:39.913Z,25.10
2023-04-21T02:26:08.653Z,24.99
2023-04-21T02:28:36.858Z,25.14
2023-04-21T02:31:07.171Z,24.81
2023-04-21T02:33:35.784Z,25.11
2023-04-21T02:36:04.573Z,25.17
2023-04-21T02:38:32.908Z,25.32
2023-04-21T02:41:01.581Z,25.32
2023-04-21T02:43:29.774Z,25.26
2023-04-21T02:45:58.898Z,25.21
2023-04-21T02:48:28.593Z,25.06
2023-04-21T02:50:57.519Z,25.19
2023-04-21T02:53:25.822Z,25.00
2023-04-21T02:55:54.440Z,25.04
2023-04-21T02:58:22.666Z,25.17
2023-04-21T03:00:51.737Z,25.54
2023-04-21T03:03:20.285Z,25.41
2023-04-21T03:05:50.318Z,25.32
2023-04-21T03:08:18.521Z,25.33
2023-04-21T03:10:47.022Z,25.60
2023-04-21T03:13:15.350Z,25.67
2023-04-21T03:15:43.916Z,25.49
2023-04-21T03:18:12.191Z,25.63
2023-04-21T03:20:40.844Z,25.90
2023-04-21T03:23:10.710Z,25.49
2023-04-21T03:25:39.831Z,25.80
2023-04-21T03:28:08.187Z,25.78
2023-04-21T03:30:36.649Z,25.67
2023-04-21T03:33:05.039Z,25.64
2023-04-21T03:35:34.430Z,25.90
2023-04-21T03:38:03.969Z,26.00
2023-04-21T03:40:34.318Z,25.61
2023-04-21T03:43:02.531Z,25.90
2023-04-21T03:45:31.050Z,25.97
2023-04-21T03:48:02.391Z,25.83
2023-04-21T03:50:31.276Z,25.95
2023-04-21T03:52:59.651Z,26.08
2023-04-21T03:55:28.386Z,25.88
2023-04-21T03:57:58.058Z,25.87
2023-04-21T04:00:26.914Z,25.90
2023-04-21T04:02:55.385Z,25.94
2023-04-21T04:05:24.536Z,25.94
2023-04-21T04:07:52.924Z,25.90
2023-04-21T04:10:21.623Z,25.34
2023-04-21T04:12:49.838Z,25.23
2023-04-21T04:15:20.220Z,24.86
2023-04-21T04:17:48.449Z,24.80
2023-04-21T04:20:17.286Z,24.74
2023-04-21T04:22:45.661Z,24.55
2023-04-21T04:25:17.131Z,24.09
2023-04-21T04:27:45.867Z,23.76
2023-04-21T04:30:14.769Z,23.39
2023-04-21T04:32:44.460Z,22.95
2023-04-21T04:35:14.557Z,23.06
2023-04-21T04:37:42.803Z,22.71
2023-04-21T04:40:12.338Z,22.52
2023-04-21T04:42:40.909Z,22.40
2023-04-21T04:45:11.605Z,21.77
2023-04-21T04:47:40.219Z,21.03
2023-04-21T04:50:10.707Z,19.70
2023-04-21T04:52:39.185Z,19.54
2023-04-21T04:55:09.112Z,18.78
2023-04-21T04:57:37.387Z,18.83
2023-04-21T05:00:07.533Z,18.88
2023-04-21T05:02:36.316Z,19.14
2023-04-21T05:05:05.796Z,18.30
2023-04-21T05:07:35.495Z,17.96
2023-04-21T05:10:04.832Z,17.77
2023-04-21T05:12:33.401Z,17.14
2023-04-21T05:15:01.896Z,16.93
2023-04-21T05:17:31.339Z,16.92
2023-04-21T05:19:59.866Z,15.74
2023-04-21T05:22:28.197Z,16.04
2023-04-21T05:24:58.406Z,15.37
2023-04-21T05:27:26.636Z,16.01
2023-04-21T05:29:56.156Z,15.96
2023-04-21T05:32:24.612Z,15.67
2023-04-21T05:34:53.386Z,15.71
2023-04-21T05:37:22.406Z,14.90
2023-04-21T05:39:51.307Z,14.60
2023-04-21T05:42:22.033Z,13.34
2023-04-21T05:44:50.853Z,12.47
2023-04-21T05:47:19.424Z,11.67
2023-04-21T05:49:50.477Z,11.82
2023-04-21T05:52:18.930Z,12.05
2023-04-21T05:54:47.776Z,11.46
2023-04-21T05:57:18.038Z,10.94
2023-04-21T05:59:48.067Z,10.96
2023-04-21T06:02:16.462Z,11.47
2023-04-21T06:04:45.402Z,10.52
2023-04-21T06:07:15.095Z,10.28
2023-04-21T06:09:45.303Z,11.32
2023-04-21T06:12:14.112Z,11.65
2023-04-21T06:14:43.357Z,11.64
2023-04-21T06:17:12.948Z,10.92
2023-04-21T06:19:41.957Z,10.69
2023-04-21T06:22:10.912Z,10.72
2023-04-21T06:24:39.823Z,10.52
2023-04-21T06:27:12.457Z,10.17
2023-04-21T06:29:42.750Z,9.87
2023-04-21T06:32:12.725Z,9.85
2023-04-21T06:34:41.421Z,10.46
2023-04-21T06:37:09.732Z,9.57
2023-04-21T06:39:38.423Z,8.94
2023-04-21T06:42:06.758Z,7.96
2023-04-21T06:44:35.318Z,7.82
2023-04-21T06:47:03.806Z,7.14
2023-04-21T06:49:34.875Z,7.46
2023-04-21T06:52:03.257Z,7.36
2023-04-21T06:54:32.034Z,6.96
2023-04-21T06:57:00.386Z,6.00
2023-04-21T06:59:29.144Z,6.09
2023-04-21T07:01:57.548Z,6.13
2023-04-21T07:04:30.129Z,6.31
2023-04-21T07:07:02.425Z,5.85
2023-04-21T07:09:33.982Z,6.12
2023-04-21T07:12:03.159Z,5.81
2023-04-21T07:14:31.852Z,5.37
2023-04-21T07:17:00.391Z,4.28
2023-04-21T07:19:29.106Z,4.68
2023-04-21T07:21:58.380Z,4.05
2023-04-21T07:24:28.471Z,3.40
2023-04-21T07:26:56.955Z,3.07
2023-04-21T07:29:25.715Z,2.86
2023-04-21T07:31:54.844Z,2.28
2023-04-21T07:34:23.566Z,1.75
2023-04-21T07:36:52.967Z,2.60
2023-04-21T07:39:21.806Z,3.14
2023-04-21T07:41:51.727Z,3.09
2023-04-21T07:44:20.396Z,2.88
2023-04-21T07:46:49.012Z,2.45
2023-04-21T07:49:18.372Z,1.95
2023-04-21T07:51:46.907Z,2.11
2023-04-21T07:54:15.583Z,3.28
2023-04-21T07:56:43.878Z,2.30
2023-04-21T07:59:13.950Z,1.87
2023-04-21T08:01:42.232Z,1.75
2023-04-21T08:04:11.146Z,2.25
2023-04-21T08:06:39.607Z,1.60
2023-04-21T08:09:08.304Z,1.84
2023-04-21T08:11:36.670Z,1.80
2023-04-21T08:14:05.415Z,2.13
2023-04-21T08:16:35.186Z,2.66
2023-04-21T08:19:03.917Z,3.15
2023-04-21T08:21:33.600Z,3.63
2023-04-21T08:24:02.409Z,3.71
2023-04-21T08:26:31.015Z,2.32
2023-04-21T08:29:00.736Z,1.34
2023-04-21T08:31:31.129Z,0.99
2023-04-21T08:34:03.154Z,0.34
2023-04-21T08:36:32.021Z,0.63
2023-04-21T08:39:01.667Z,0.24
2023-04-21T08:41:30.242Z,0.06
2023-04-21T08:43:58.937Z,0.00
2023-04-21T08:46:29.340Z,0.00
2023-04-21T08:49:01.209Z,0.00
2023-04-21T08:51:30.393Z,0.28
2023-04-21T08:53:59.301Z,1.69
2023-04-21T08:56:28.058Z,2.49
2023-04-21T08:58:56.639Z,2.97
2023-04-21T09:01:25.220Z,4.42
2023-04-21T09:03:53.947Z,4.83
2023-04-21T09:06:23.996Z,4.48
2023-04-21T09:08:56.651Z,4.92
2023-04-21T09:11:25.828Z,4.93
2023-04-21T09:13:58.350Z,3.84
2023-04-21T09:16:26.794Z,3.75
2023-04-21T09:18:56.437Z,2.49
2023-04-21T09:21:32.113Z,2.71
2023-04-21T09:24:06.554Z,1.61
2023-04-21T09:26:37.456Z,2.56
2023-04-21T09:29:07.701Z,1.50
2023-04-21T09:31:36.954Z,0.68
2023-04-21T09:34:19.894Z,0.97
2023-04-21T09:36:49.851Z,1.93
2023-04-21T09:39:34.270Z,3.02
2023-04-21T09:42:07.308Z,3.96
2023-04-21T09:44:43.320Z,3.65
2023-04-21T09:47:15.917Z,3.05
2023-04-21T09:49:45.178Z,1.63
2023-04-21T09:52:19.091Z,1.61
2023-04-21T09:54:51.581Z,1.58
2023-04-21T09:57:23.903Z,1.51
2023-04-21T09:59:57.255Z,2.42
2023-04-21T10:02:27.962Z,3.56
2023-04-21T10:04:57.134Z,2.87
2023-04-21T10:07:27.175Z,2.43
2023-04-21T10:09:58.260Z,2.15
2023-04-21T10:12:27.111Z,1.57
2023-04-21T10:14:56.318Z,0.34
2023-04-21T10:17:26.044Z,0.00
2023-04-21T10:19:57.447Z,0.00
2023-04-21T10:22:31.074Z,0.21
2023-04-21T10:25:01.215Z,1.91
2023-04-21T10:27:34.572Z,3.10
2023-04-21T10:30:03.649Z,3.98
2023-04-21T10:32:42.786Z,3.54
2023-04-21T10:35:12.185Z,3.52
2023-04-21T10:37:42.485Z,2.53
2023-04-21T10:40:43.622Z,1.46
2023-04-21T10:43:43.275Z,0.06
2023-04-21T10:46:32.678Z,0.00
2023-04-21T10:49:06.633Z,0.74
2023-04-21T10:51:35.229Z,2.81
2023-04-21T10:54:08.153Z,3.79
2023-04-21T10:56:38.213Z,4.31
2023-04-21T10:59:07.181Z,4.83
2023-04-21T11:01:35.799Z,3.84
2023-04-21T11:04:04.260Z,3.27
2023-04-21T11:06:32.867Z,2.15
2023-04-21T11:09:01.867Z,0.89
2023-04-21T11:11:31.826Z,0.62
2023-04-21T11:14:01.452Z,1.35
2023-04-21T11:16:30.112Z,2.39
2023-04-21T11:18:58.483Z,3.18
2023-04-21T11:21:27.038Z,2.21
2023-04-21T11:23:56.401Z,1.26
2023-04-21T11:26:33.606Z,0.00
2023-04-21T11:29:03.287Z,0.21
2023-04-21T11:31:32.434Z,1.63
2023-04-21T11:34:01.404Z,2.96
2023-04-21T11:36:30.535Z,3.84
2023-04-21T11:38:59.532Z,4.39
2023-04-21T11:41:28.270Z,4.39
2023-04-21T11:43:58.007Z,4.98
2023-04-21T11:46:27.604Z,4.64
2023-04-21T11:49:07.424Z,4.51
2023-04-21T11:51:37.733Z,4.69
2023-04-21T11:54:07.612Z,5.30
2023-04-21T11:56:37.856Z,5.00
2023-04-21T11:59:11.064Z,5.18
2023-04-21T12:01:44.798Z,5.65
2023-04-21T12:04:15.670Z,6.52
2023-04-21T12:06:44.167Z,6.45
2023-04-21T12:09:18.650Z,6.92
2023-04-21T12:11:49.784Z,6.47
2023-04-21T12:14:20.639Z,6.93
2023-04-21T12:16:49.838Z,7.23
2023-04-21T12:19:24.036Z,7.84
2023-04-21T12:21:55.751Z,7.23
2023-04-21T12:24:24.284Z,7.27
2023-04-21T12:26:52.828Z,7.06
2023-04-21T12:29:22.533Z,6.43
2023-04-21T12:31:51.176Z,7.31
2023-04-21T12:34:19.651Z,7.53
2023-04-21T12:36:48.226Z,7.93
2023-04-21T12:39:17.464Z,8.35
2023-04-21T12:41:47.514Z,8.67
2023-04-21T12:44:16.120Z,9.11
2023-04-21T12:46:45.962Z,9.97
2023-04-21T12:49:15.789Z,10.47
2023-04-21T12:51:44.643Z,10.05
2023-04-21T12:54:12.974Z,10.07
2023-04-21T12:56:42.359Z,9.88
2023-04-21T12:59:11.547Z,9.81
2023-04-21T13:01:41.540Z,9.58
2023-04-21T13:04:11.530Z,9.12
2023-04-21T13:06:40.685Z,8.88
2023-04-21T13:09:08.915Z,8.37
2023-04-21T13:11:37.414Z,8.21
2023-04-21T13:14:05.575Z,8.60
2023-04-21T13:16:34.160Z,8.84
2023-04-21T13:19:05.082Z,8.55
2023-04-21T13:21:37.952Z,8.21
2023-04-21T13:24:06.484Z,8.68
2023-04-21T13:26:35.442Z,8.56
2023-04-21T13:29:03.778Z,8.11
2023-04-21T13:31:34.649Z,8.53
2023-04-21T13:34:05.999Z,8.45
2023-04-21T13:36:34.537Z,8.71
2023-04-21T13:39:07.722Z,8.44
2023-04-21T13:41:36.608Z,8.62
2023-04-21T13:44:05.309Z,8.50
2023-04-21T13:46:34.083Z,8.47
2023-04-21T13:49:02.360Z,8.19
2023-04-21T13:51:32.409Z,8.89
2023-04-21T13:54:00.702Z,8.36
2023-04-21T13:56:30.628Z,8.31
2023-04-21T13:59:00.498Z,8.46
2023-04-21T14:01:29.110Z,8.86
2023-04-21T14:03:57.707Z,8.80
2023-04-21T14:06:26.631Z,8.96
2023-04-21T14:08:54.870Z,9.19
2023-04-21T14:11:23.476Z,8.76
2023-04-21T14:16:28.397Z,8.35
2023-04-21T14:18:56.594Z,8.46
2023-04-21T14:21:25.085Z,8.39
2023-04-21T14:23:53.377Z,8.05
2023-04-21T14:26:22.236Z,8.08
2023-04-21T14:28:51.966Z,7.85
2023-04-21T14:31:22.229Z,7.24
2023-04-21T14:33:50.712Z,7.79
2023-04-21T14:36:19.224Z,7.36
2023-04-21T14:38:47.749Z,8.31
2023-04-21T14:41:16.737Z,7.58
2023-04-21T14:43:46.442Z,7.61
2023-04-21T14:46:17.539Z,7.39
2023-04-21T14:48:45.846Z,8.09
2023-04-21T14:51:14.353Z,8.93
2023-04-21T14:53:42.581Z,8.76
2023-04-21T14:56:11.253Z,8.69
2023-04-21T14:58:39.406Z,8.75
2023-04-21T15:01:08.093Z,9.87
2023-04-21T15:03:38.176Z,8.75
2023-04-21T15:06:07.430Z,9.11
2023-04-21T15:08:36.001Z,8.84
2023-04-21T15:11:05.315Z,9.26
2023-04-21T15:13:36.622Z,8.85
2023-04-21T15:16:05.397Z,8.54
2023-04-21T15:18:33.980Z,8.66
2023-04-21T15:21:04.001Z,9.35
2023-04-21T15:23:42.575Z,9.22
2023-04-21T15:26:21.904Z,8.81
2023-04-21T15:28:50.955Z,8.79
2023-04-21T15:31:24.294Z,8.75
2023-04-21T15:33:54.432Z,9.04
2023-04-21T15:36:26.259Z,9.11
2023-04-21T15:38:56.656Z,9.19
2023-04-21T15:41:33.253Z,8.68
2023-04-21T15:44:03.031Z,9.13
2023-04-21T15:46:34.887Z,9.23
2023-04-21T15:49:08.945Z,9.37
2023-04-21T15:51:47.806Z,9.92
2023-04-21T15:54:17.752Z,9.40
2023-04-21T15:56:47.005Z,10.01
2023-04-21T15:59:16.988Z,10.05
2023-04-21T16:01:46.585Z,10.45
2023-04-21T16:04:17.051Z,9.98
2023-04-21T16:06:51.795Z,9.60
2023-04-21T16:09:30.601Z,9.73
2023-04-21T16:12:00.749Z,9.93
2023-04-21T16:14:46.525Z,9.75
2023-04-21T16:17:33.236Z,8.85
2023-04-21T16:20:06.949Z,8.92
2023-04-21T16:22:44.069Z,9.12
2023-04-21T16:25:23.263Z,9.42
2023-04-21T16:27:59.810Z,9.57
2023-04-21T16:30:29.416Z,9.44
2023-04-21T16:33:00.456Z,9.66
2023-04-21T16:35:33.129Z,9.95
2023-04-21T16:38:04.505Z,9.80
2023-04-21T16:40:34.168Z,9.82
2023-04-21T16:43:12.208Z,9.74
2023-04-21T16:45:44.496Z,10.32
2023-04-21T16:48:14.634Z,9.99
2023-04-21T16:50:44.300Z,10.67
2023-04-21T16:53:15.654Z,10.19
2023-04-21T16:55:49.121Z,10.59
2023-04-21T16:58:24.767Z,10.00
2023-04-21T17:00:57.902Z,10.15
2023-04-21T17:03:30.874Z,9.84
2023-04-21T17:06:06.632Z,10.61
2023-04-21T17:08:38.403Z,11.16
2023-04-21T17:11:10.421Z,9.58
2023-04-21T17:13:42.813Z,10.77
2023-04-21T17:16:12.121Z,11.03
2023-04-21T17:18:45.404Z,11.50
2023-04-21T17:21:18.057Z,10.82
2023-04-21T17:23:55.263Z,11.36
2023-04-21T17:26:24.780Z,10.50
2023-04-21T17:28:57.966Z,10.84
2023-04-21T17:31:29.869Z,10.74
2023-04-21T17:33:59.856Z,10.79
2023-04-21T17:36:29.602Z,11.18
2023-04-21T17:39:10.667Z,11.11
2023-04-21T17:41:42.870Z,11.02
2023-04-21T17:44:18.400Z,10.62
2023-04-21T17:46:50.871Z,11.47
2023-04-21T17:49:27.711Z,11.36
2023-04-21T17:51:57.463Z,11.15
2023-04-21T17:54:38.148Z,11.08
2023-04-21T17:57:21.755Z,11.78
2023-04-21T18:00:03.837Z,10.83
2023-04-21T18:02:42.097Z,11.56
2023-04-21T18:06:15.091Z,11.32
2023-04-21T18:08:21.884Z,11.64
2023-04-21T18:10:59.187Z,11.58
2023-04-21T18:13:28.501Z,12.00
2023-04-21T18:16:10.240Z,11.44
2023-04-21T18:18:50.656Z,12.24
2023-04-21T18:21:30.087Z,11.87
2023-04-21T18:24:02.785Z,12.15
2023-04-21T18:26:33.687Z,11.99
2023-04-21T18:29:22.054Z,12.26
2023-04-21T18:32:00.957Z,12.23
2023-04-21T18:34:41.666Z,11.96
2023-04-21T18:37:18.611Z,12.13
2023-04-21T18:39:50.983Z,11.94
2023-04-21T18:42:38.929Z,12.13
2023-04-21T18:45:11.202Z,12.02
2023-04-21T18:47:45.897Z,12.69
2023-04-21T18:50:20.531Z,12.70
2023-04-21T18:53:00.161Z,12.78
2023-04-21T18:55:44.871Z,12.55
2023-04-21T18:58:18.972Z,12.72
2023-04-21T19:00:56.218Z,12.47
2023-04-21T19:03:28.508Z,12.67
2023-04-21T19:06:02.415Z,12.78
2023-04-21T19:08:43.035Z,12.52
2023-04-21T19:11:15.499Z,13.05
2023-04-21T19:13:50.880Z,12.58
2023-04-21T19:16:28.354Z,12.81
2023-04-21T19:19:06.798Z,12.70
2023-04-21T19:21:42.845Z,13.24
2023-04-21T19:24:19.353Z,12.58
2023-04-21T19:26:52.714Z,13.07
2023-04-21T19:29:36.704Z,12.86
2023-04-21T19:32:10.942Z,13.07
2023-04-21T19:34:45.860Z,13.42
2023-04-21T19:37:26.126Z,13.28
2023-04-21T19:40:06.313Z,13.16
2023-04-21T19:42:41.583Z,13.46
2023-04-21T19:45:18.077Z,13.57
2023-04-21T19:47:49.911Z,13.78
2023-04-21T19:50:20.566Z,13.89
2023-04-21T19:52:58.662Z,13.87
2023-04-21T19:55:40.176Z,13.74
2023-04-21T19:58:32.592Z,13.19
2023-04-21T20:01:13.343Z,13.85
2023-04-21T20:03:47.453Z,13.99
2023-04-21T20:06:21.311Z,13.62
2023-04-21T20:08:53.370Z,13.88
2023-04-21T20:11:29.309Z,13.82
2023-04-21T20:13:58.783Z,14.00
2023-04-21T20:16:33.385Z,13.75
2023-04-21T20:19:10.534Z,13.27
2023-04-21T20:21:48.021Z,13.72
2023-04-21T20:24:17.529Z,13.69
2023-04-21T20:26:49.821Z,13.90
2023-04-21T20:29:48.281Z,14.08
2023-04-21T20:32:35.724Z,13.44
2023-04-21T20:35:12.162Z,13.55
2023-04-21T20:37:54.292Z,14.10
2023-04-21T20:40:25.929Z,14.58
2023-04-21T20:43:05.702Z,14.15
2023-04-21T20:45:48.506Z,14.40
2023-04-21T20:48:27.232Z,14.42
2023-04-21T20:51:01.860Z,14.60
2023-04-21T20:53:39.891Z,14.92
2023-04-21T20:56:47.064Z,14.38
2023-04-21T20:59:31.307Z,14.72
2023-04-21T21:02:06.546Z,15.00
2023-04-21T21:04:45.953Z,14.85
2023-04-21T21:07:20.689Z,15.47
2023-04-21T21:09:58.391Z,14.93
2023-04-21T21:12:41.389Z,15.15
2023-04-21T21:15:16.736Z,15.04
2023-04-21T21:17:51.248Z,15.58
2023-04-21T21:20:25.290Z,15.60
2023-04-21T21:23:02.306Z,15.64
2023-04-21T21:25:37.001Z,15.46
2023-04-21T21:28:10.256Z,15.97
2023-04-21T21:30:49.843Z,15.44
2023-04-21T21:33:35.012Z,15.73
2023-04-21T21:36:08.218Z,15.88
2023-04-21T21:38:43.707Z,15.71
2023-04-21T21:41:24.603Z,15.98
2023-04-21T21:43:59.466Z,16.04
2023-04-21T21:46:33.768Z,16.09
2023-04-21T21:49:16.079Z,15.98
2023-04-21T21:51:50.805Z,16.24
2023-04-21T21:54:25.650Z,16.43
2023-04-21T21:56:57.947Z,16.65
2023-04-21T21:59:31.610Z,16.45
2023-04-21T22:02:03.511Z,16.82
2023-04-21T22:04:35.371Z,16.88
2023-04-21T22:07:13.132Z,16.83
2023-04-21T22:09:50.725Z,17.44
2023-04-21T22:12:22.566Z,17.31
2023-04-21T22:15:01.668Z,16.28
2023-04-21T22:17:34.924Z,17.22
2023-04-21T22:20:08.528Z,17.59
2023-04-21T22:22:44.761Z,17.47
2023-04-21T22:25:21.394Z,17.62
2023-04-21T22:27:59.290Z,17.86
2023-04-21T22:30:29.985Z,17.86
2023-04-21T22:33:03.368Z,18.04
2023-04-21T22:35:41.630Z,17.87
2023-04-21T22:38:14.455Z,17.80
2023-04-21T22:41:00.709Z,17.70
2023-04-21T22:43:42.352Z,17.58
2023-04-21T22:46:20.451Z,17.86
2023-04-21T22:48:56.873Z,17.97
2023-04-21T22:51:32.894Z,18.15
2023-04-21T22:54:21.187Z,17.98
2023-04-21T22:56:58.481Z,18.08
2023-04-21T22:59:31.047Z,18.46
2023-04-21T23:02:15.491Z,18.06
2023-04-21T23:04:47.830Z,18.20
2023-04-21T23:07:22.618Z,18.79
2023-04-21T23:09:56.419Z,18.47
2023-04-21T23:12:29.002Z,18.35
2023-04-21T23:15:16.177Z,18.21
2023-04-21T23:17:52.845Z,18.63
2023-04-21T23:20:28.819Z,18.19
2023-04-21T23:23:00.204Z,18.32
2023-04-21T23:25:42.812Z,18.63
2023-04-21T23:28:27.154Z,18.81
2023-04-21T23:30:59.382Z,18.74
2023-04-21T23:33:35.141Z,18.84
2023-04-21T23:36:07.677Z,18.87
2023-04-21T23:38:57.450Z,18.93
2023-04-21T23:41:28.393Z,18.81
2023-04-21T23:43:57.538Z,18.98
2023-04-21T23:46:29.522Z,19.16
2023-04-21T23:49:03.511Z,19.23
2023-04-21T23:51:47.150Z,19.10
2023-04-21T23:54:21.216Z,19.45
2023-04-21T23:56:56.165Z,19.20
2023-04-21T23:59:26.475Z,19.58
